Time;durP1;ratioP1;P1;durP2;ratioP2;P2;SDS_P1;SDS_P2;PMS_P1;PMS_P2;Temp;Humidity;BMP_temperature;BMP_pressure;BME280_temperature;BME280_humidity;BME280_pressure;Samples;Min_cycle;Max_cycle;Signal;HPM_P1;HPM_P2
2023/09/14 00:01:16;;;;;;;2.08;0.90;;;;;;;12.44;100.00;101464.47;5047727;28;20106;-50
2023/09/14 00:03:41;;;;;;;1.05;0.80;;;;;;;12.50;100.00;101473.53;5056951;28;20024;-52
2023/09/14 00:06:06;;;;;;;1.27;0.60;;;;;;;12.75;100.00;101468.00;5057762;28;21053;-52
2023/09/14 00:08:31;;;;;;;2.75;0.60;;;;;;;12.93;100.00;101451.69;5061545;28;20277;-49
2023/09/14 00:10:58;;;;;;;2.50;0.98;;;;;;;12.81;100.00;101456.63;5054363;28;20035;-50
2023/09/14 00:13:24;;;;;;;2.10;0.70;;;;;;;12.66;100.00;101460.09;5061411;28;20411;-50
2023/09/14 00:15:50;;;;;;;3.00;0.98;;;;;;;11.50;100.00;101469.00;5055693;28;20028;-50
2023/09/14 00:18:16;;;;;;;3.50;1.10;;;;;;;11.64;100.00;101467.47;5055573;28;20144;-49
2023/09/14 00:20:41;;;;;;;3.78;2.25;;;;;;;11.32;100.00;101471.91;5063696;28;20410;-52
2023/09/14 00:23:07;;;;;;;2.70;0.47;;;;;;;11.29;100.00;101466.94;5057389;28;20036;-54
2023/09/14 00:25:32;;;;;;;1.33;0.73;;;;;;;11.44;100.00;101475.00;5053659;28;20480;-52
2023/09/14 00:27:57;;;;;;;2.60;0.82;;;;;;;11.33;100.00;101476.22;5054095;28;20167;-50
2023/09/14 00:30:23;;;;;;;1.55;0.80;;;;;;;11.60;100.00;101467.97;5059044;28;20114;-51
2023/09/14 00:32:51;;;;;;;1.15;0.93;;;;;;;11.47;100.00;101469.34;5065097;28;20123;-51
2023/09/14 00:35:18;;;;;;;3.08;0.52;;;;;;;11.51;100.00;101462.72;5058227;28;20036;-49
2023/09/14 00:37:43;;;;;;;10.90;0.75;;;;;;;11.47;100.00;101455.25;5056920;28;20029;-50
2023/09/14 00:40:10;;;;;;;2.78;1.17;;;;;;;11.51;100.00;101469.81;5054239;28;20085;-52
2023/09/14 00:42:43;;;;;;;4.68;0.98;;;;;;;11.55;100.00;101460.53;5061859;28;20036;-49
2023/09/14 00:45:10;;;;;;;1.90;0.93;;;;;;;11.49;100.00;101463.88;5052540;28;20025;-51
2023/09/14 00:47:38;;;;;;;5.15;0.88;;;;;;;11.46;100.00;101466.84;5056333;28;20036;-49
2023/09/14 00:50:04;;;;;;;7.80;1.60;;;;;;;11.37;100.00;101467.91;5051291;28;20024;-53
2023/09/14 00:52:31;;;;;;;2.75;1.15;;;;;;;11.41;100.00;101463.88;5059305;28;20032;-52
2023/09/14 00:54:57;;;;;;;5.10;0.90;;;;;;;11.47;100.00;101457.91;5056420;28;20037;-49
2023/09/14 00:57:23;;;;;;;1.60;0.80;;;;;;;11.52;100.00;101467.00;5056061;28;20036;-48
2023/09/14 00:59:50;;;;;;;0.43;0.40;;;;;;;11.61;100.00;101464.31;5056847;28;20028;-49
2023/09/14 01:02:15;;;;;;;0.80;0.80;;;;;;;11.63;100.00;101455.16;5051477;28;20386;-51
2023/09/14 01:04:41;;;;;;;4.32;1.15;;;;;;;11.30;100.00;101447.34;5050270;28;20031;-48
2023/09/14 01:07:06;;;;;;;3.08;1.40;;;;;;;11.34;100.00;101453.97;5059158;28;20083;-48
2023/09/14 01:09:31;;;;;;;0.70;0.70;;;;;;;11.29;100.00;101448.34;5053978;28;21168;-50
2023/09/14 01:11:57;;;;;;;2.15;1.02;;;;;;;11.35;100.00;101455.63;5060572;28;20429;-51
2023/09/14 01:14:30;;;;;;;0.40;0.25;;;;;;;11.33;100.00;101448.81;5059324;28;20098;-51
2023/09/14 01:17:06;;;;;;;2.53;0.57;;;;;;;11.21;100.00;101442.25;5047408;28;20060;-48
2023/09/14 01:19:38;;;;;;;4.78;0.55;;;;;;;11.16;100.00;101440.09;5058367;28;20093;-50
2023/09/14 01:22:18;;;;;;;1.65;0.73;;;;;;;11.43;100.00;101438.81;5059660;28;20040;-49
2023/09/14 01:24:52;;;;;;;0.98;0.90;;;;;;;11.65;100.00;101434.56;5050255;28;20090;-47
2023/09/14 01:27:17;;;;;;;1.58;1.13;;;;;;;11.53;100.00;101438.63;5054948;28;20376;-48
2023/09/14 01:29:43;;;;;;;1.48;0.77;;;;;;;11.33;100.00;101448.81;5051603;28;20028;-48
2023/09/14 01:32:08;;;;;;;2.05;0.77;;;;;;;11.35;100.00;101450.31;5053641;28;20135;-49
2023/09/14 01:34:33;;;;;;;2.22;0.40;;;;;;;11.68;100.00;101444.03;5056040;28;20040;-52
2023/09/14 01:37:04;;;;;;;2.35;0.55;;;;;;;11.88;100.00;101445.25;5054229;28;20021;-47
2023/09/14 01:39:31;;;;;;;1.02;0.93;;;;;;;11.90;100.00;101443.25;5055744;28;20135;-54
2023/09/14 01:41:57;;;;;;;0.98;0.80;;;;;;;12.03;100.00;101450.66;5056080;28;20028;-50
2023/09/14 01:44:25;;;;;;;1.95;1.25;;;;;;;11.60;100.00;101444.88;5066201;28;20032;-51
2023/09/14 01:46:51;;;;;;;2.53;1.17;;;;;;;11.73;100.00;101444.31;5055659;28;20390;-51
2023/09/14 01:49:16;;;;;;;0.50;0.50;;;;;;;11.88;100.00;101431.16;5056674;28;20082;-51
2023/09/14 01:51:42;;;;;;;8.13;1.17;;;;;;;11.90;100.00;101435.28;5054539;28;20029;-49
2023/09/14 01:54:07;;;;;;;3.17;0.65;;;;;;;11.80;100.00;101439.97;5061040;28;20033;-49
2023/09/14 01:56:33;;;;;;;1.45;0.47;;;;;;;11.86;100.00;101435.78;5060122;28;20047;-47
2023/09/14 01:58:58;;;;;;;0.63;0.40;;;;;;;11.86;100.00;101438.44;5053000;28;20033;-48
2023/09/14 02:01:23;;;;;;;1.13;0.30;;;;;;;11.20;100.00;101440.56;5056525;28;20093;-51
2023/09/14 02:03:49;;;;;;;3.53;0.43;;;;;;;11.43;100.00;101436.16;5055489;28;20860;-50
2023/09/14 02:06:14;;;;;;;2.80;0.50;;;;;;;11.49;100.00;101438.16;5061397;28;20567;-49
2023/09/14 02:08:39;;;;;;;1.55;0.60;;;;;;;11.60;100.00;101441.41;5056438;28;20459;-51
2023/09/14 02:11:05;;;;;;;1.75;0.60;;;;;;;11.47;100.00;101441.97;5049894;28;20035;-50
2023/09/14 02:13:30;;;;;;;5.68;0.98;;;;;;;11.75;100.00;101440.50;5059394;28;20058;-48
2023/09/14 02:15:55;;;;;;;3.28;0.93;;;;;;;11.75;100.00;101434.34;5056269;28;20037;-53
2023/09/14 02:18:21;;;;;;;1.13;0.70;;;;;;;11.85;100.00;101442.06;5058949;28;20028;-50
2023/09/14 02:20:46;;;;;;;1.75;1.30;;;;;;;11.88;100.00;101439.13;5060070;28;20078;-54
2023/09/14 02:23:11;;;;;;;1.02;0.43;;;;;;;11.94;100.00;101441.06;5055430;28;20029;-53
2023/09/14 02:25:37;;;;;;;2.42;0.30;;;;;;;12.19;100.00;101428.44;5053130;28;20393;-48
2023/09/14 02:28:03;;;;;;;0.85;0.80;;;;;;;12.18;100.00;101430.28;5059603;28;20028;-50
2023/09/14 02:30:28;;;;;;;1.80;0.52;;;;;;;12.22;100.00;101430.72;5059520;28;20036;-52
2023/09/14 02:32:54;;;;;;;3.33;0.88;;;;;;;12.21;100.00;101434.41;5054031;28;20552;-51
2023/09/14 02:35:19;;;;;;;2.17;0.77;;;;;;;12.07;100.00;101425.34;5062970;28;20564;-49
2023/09/14 02:37:44;;;;;;;1.45;0.60;;;;;;;12.04;100.00;101432.88;5054468;28;20059;-52
2023/09/14 02:40:10;;;;;;;1.10;0.65;;;;;;;11.97;100.00;101428.25;5056976;28;20040;-50
2023/09/14 02:42:37;;;;;;;1.02;0.47;;;;;;;11.95;100.00;101418.78;5057897;28;20073;-51
2023/09/14 02:45:04;;;;;;;1.05;0.45;;;;;;;11.85;100.00;101426.97;5052558;28;20035;-50
2023/09/14 02:47:29;;;;;;;10.15;0.45;;;;;;;11.78;100.00;101426.03;5049803;28;20036;-48
2023/09/14 02:49:54;;;;;;;4.90;0.75;;;;;;;11.87;100.00;101427.66;5061924;28;20032;-53
2023/09/14 02:52:20;;;;;;;2.40;0.70;;;;;;;11.85;100.00;101432.31;5056667;28;20033;-51
2023/09/14 02:54:45;;;;;;;2.15;1.23;;;;;;;11.92;100.00;101419.97;5056524;28;20096;-49
2023/09/14 02:57:10;;;;;;;3.63;1.45;;;;;;;11.96;100.00;101420.47;5054652;28;20036;-51
2023/09/14 02:59:36;;;;;;;1.75;0.50;;;;;;;12.14;100.00;101425.47;5058230;28;20143;-53
2023/09/14 03:02:02;;;;;;;2.47;1.50;;;;;;;12.07;100.00;101425.34;5053532;28;20376;-52
2023/09/14 03:04:27;;;;;;;4.22;1.67;;;;;;;12.04;100.00;101432.88;5060921;28;20512;-48
2023/09/14 03:06:54;;;;;;;3.95;0.57;;;;;;;11.79;100.00;101428.50;5056066;28;20426;-52
2023/09/14 03:09:19;;;;;;;0.35;0.30;;;;;;;11.76;100.00;101436.00;5056111;28;20437;-51
2023/09/14 03:11:45;;;;;;;1.75;0.80;;;;;;;11.71;100.00;101433.03;5048203;28;20043;-50
2023/09/14 03:14:11;;;;;;;2.63;0.70;;;;;;;11.69;100.00;101429.72;5062289;28;20039;-53
2023/09/14 03:16:36;;;;;;;1.40;0.43;;;;;;;11.63;100.00;101430.44;5056174;28;20070;-50
2023/09/14 03:19:03;;;;;;;4.38;0.88;;;;;;;11.70;100.00;101421.59;5066349;28;20032;-54
2023/09/14 03:21:29;;;;;;;1.65;0.30;;;;;;;11.48;100.00;101428.50;5049132;28;20444;-52
2023/09/14 03:23:55;;;;;;;3.03;0.73;;;;;;;11.52;100.00;101424.50;5057940;28;20114;-55
2023/09/14 03:26:23;;;;;;;0.32;0.22;;;;;;;11.54;100.00;101422.50;5062728;28;20120;-49
2023/09/14 03:28:49;;;;;;;9.60;0.95;;;;;;;11.67;100.00;101426.41;5057271;28;20033;-54
2023/09/14 03:31:15;;;;;;;2.05;0.68;;;;;;;11.83;100.00;101422.84;5052911;28;20048;-50
2023/09/14 03:33:40;;;;;;;0.57;0.35;;;;;;;11.91;100.00;101423.63;5058669;28;20033;-50
2023/09/14 03:36:06;;;;;;;1.25;0.40;;;;;;;12.00;100.00;101417.28;5056575;28;20024;-51
2023/09/14 03:38:31;;;;;;;0.60;0.25;;;;;;;12.16;100.00;101415.50;5054649;28;20425;-51
2023/09/14 03:40:56;;;;;;;1.50;0.30;;;;;;;12.23;100.00;101409.25;5054606;28;20538;-48
2023/09/14 03:43:22;;;;;;;0.90;0.43;;;;;;;12.20;100.00;101404.31;5054244;28;20440;-49
2023/09/14 03:45:47;;;;;;;3.85;0.50;;;;;;;12.25;100.00;101403.78;5060244;28;20056;-51
2023/09/14 03:48:12;;;;;;;0.95;0.70;;;;;;;12.32;100.00;101398.56;5061286;28;20048;-53
2023/09/14 03:50:38;;;;;;;1.15;0.20;;;;;;;12.28;100.00;101395.44;5058340;28;20020;-52
2023/09/14 03:53:03;;;;;;;0.60;0.60;;;;;;;12.37;100.00;101389.03;5054291;28;20063;-53
2023/09/14 03:55:30;;;;;;;0.90;0.52;;;;;;;12.34;100.00;101386.75;5053066;28;20040;-54
2023/09/14 03:57:55;;;;;;;1.80;0.90;;;;;;;12.35;100.00;101393.72;5057126;28;20730;-52
2023/09/14 04:00:21;;;;;;;1.70;0.50;;;;;;;12.48;100.00;101378.97;5058948;28;20175;-49
2023/09/14 04:02:46;;;;;;;2.60;0.30;;;;;;;12.51;100.00;101381.25;5060434;28;20028;-50
2023/09/14 04:05:12;;;;;;;1.15;0.82;;;;;;;12.46;100.00;101380.97;5054135;28;20545;-50
2023/09/14 04:07:37;;;;;;;0.70;0.47;;;;;;;12.46;100.00;101381.81;5060209;28;20033;-48
2023/09/14 04:10:04;;;;;;;4.13;0.32;;;;;;;12.56;100.00;101376.22;5049600;28;20029;-50
2023/09/14 04:12:30;;;;;;;1.35;0.65;;;;;;;12.54;100.00;101376.41;5050490;28;20052;-52
2023/09/14 04:14:55;;;;;;;0.68;0.60;;;;;;;12.53;100.00;101379.25;5057113;28;20241;-53
2023/09/14 04:17:20;;;;;;;2.30;0.40;;;;;;;12.54;100.00;101371.06;5057856;28;20028;-53
2023/09/14 04:19:46;;;;;;;3.67;0.93;;;;;;;12.63;100.00;101377.97;5066714;28;20043;-50
2023/09/14 04:22:12;;;;;;;1.38;0.77;;;;;;;12.70;100.00;101375.44;5061454;28;20041;-51
2023/09/14 04:24:37;;;;;;;1.25;0.32;;;;;;;12.71;100.00;101377.06;5062502;28;20243;-53
2023/09/14 04:27:03;;;;;;;2.63;0.93;;;;;;;12.86;100.00;101383.22;5057132;28;20190;-53
2023/09/14 04:29:30;;;;;;;3.50;0.75;;;;;;;12.80;100.00;101370.66;5049823;28;20032;-50
2023/09/14 04:31:58;;;;;;;1.10;0.40;;;;;;;12.79;100.00;101368.16;5050596;28;21009;-51
2023/09/14 04:34:24;;;;;;;1.65;0.38;;;;;;;12.92;100.00;101357.69;5059278;28;20381;-54
2023/09/14 04:36:49;;;;;;;1.98;0.73;;;;;;;12.54;100.00;101360.44;5064487;28;20032;-55
2023/09/14 04:39:15;;;;;;;2.58;0.40;;;;;;;12.57;100.00;101359.25;5055170;28;20058;-50
2023/09/14 04:41:40;;;;;;;2.20;0.70;;;;;;;12.61;100.00;101353.38;5053438;28;20124;-49
2023/09/14 04:44:05;;;;;;;2.72;0.77;;;;;;;12.60;100.00;101357.06;5058966;28;20059;-53
2023/09/14 04:46:31;;;;;;;1.15;0.35;;;;;;;12.64;100.00;101354.84;5056454;28;20035;-53
2023/09/14 04:48:56;;;;;;;3.33;0.45;;;;;;;12.71;100.00;101353.13;5049712;28;20443;-54
2023/09/14 04:51:23;;;;;;;1.05;1.05;;;;;;;12.68;100.00;101360.66;5055708;28;20028;-51
2023/09/14 04:53:48;;;;;;;1.27;0.38;;;;;;;12.70;100.00;101359.47;5056783;28;20029;-47
2023/09/14 04:56:14;;;;;;;1.00;0.40;;;;;;;12.69;100.00;101357.78;5049949;28;20033;-49
2023/09/14 04:58:39;;;;;;;2.15;0.65;;;;;;;12.72;100.00;101368.06;5051676;28;20033;-54
2023/09/14 05:01:05;;;;;;;1.35;0.35;;;;;;;12.54;100.00;101370.25;5050245;28;20506;-53
2023/09/14 05:03:31;;;;;;;0.90;0.45;;;;;;;12.34;100.00;101372.59;5052122;28;20103;-51
2023/09/14 05:05:56;;;;;;;1.55;0.57;;;;;;;12.30;100.00;101384.63;5053167;28;20054;-51
2023/09/14 05:08:22;;;;;;;0.50;0.20;;;;;;;12.21;100.00;101391.88;5054753;28;20501;-52
2023/09/14 05:10:51;;;;;;;2.45;0.40;;;;;;;12.20;100.00;101390.19;5052784;28;20128;-53
2023/09/14 05:13:18;;;;;;;1.15;0.60;;;;;;;12.31;100.00;101387.09;5059837;28;20081;-50
2023/09/14 05:15:47;;;;;;;1.20;0.52;;;;;;;12.30;100.00;101377.47;5057753;28;20025;-51
2023/09/14 05:18:13;;;;;;;1.02;0.30;;;;;;;12.33;100.00;101384.25;5056020;28;20032;-51
2023/09/14 05:20:47;;;;;;;2.45;0.55;;;;;;;12.39;100.00;101387.03;5055217;28;20374;-51
2023/09/14 05:23:12;;;;;;;2.63;0.85;;;;;;;11.30;100.00;101401.38;5055918;28;20435;-49
2023/09/14 05:25:39;;;;;;;0.50;0.30;;;;;;;11.23;100.00;101403.06;5052642;28;20029;-52
2023/09/14 05:28:04;;;;;;;2.30;1.33;;;;;;;12.01;100.00;101394.19;5053063;28;20353;-51
2023/09/14 05:30:32;;;;;;;0.50;0.47;;;;;;;12.08;100.00;101388.97;5049639;28;20037;-48
2023/09/14 05:32:57;;;;;;;0.22;0.22;;;;;;;12.35;100.00;101385.75;5052915;28;20128;-49
2023/09/14 05:35:23;;;;;;;1.40;0.40;;;;;;;11.65;100.00;101386.75;5052262;28;20566;-47
2023/09/14 05:37:48;;;;;;;1.13;0.28;;;;;;;11.31;100.00;101395.91;5059053;28;20053;-51
2023/09/14 05:40:14;;;;;;;1.40;0.50;;;;;;;11.78;100.00;101380.84;5061141;28;20103;-49
2023/09/14 05:42:39;;;;;;;0.47;0.20;;;;;;;11.81;100.00;101383.16;5058420;28;20440;-50
2023/09/14 05:45:06;;;;;;;1.55;0.70;;;;;;;11.97;100.00;101385.72;5055513;28;20075;-51
2023/09/14 05:47:32;;;;;;;1.13;1.00;;;;;;;11.97;100.00;101388.38;5056054;28;20036;-48
2023/09/14 05:49:57;;;;;;;0.93;0.55;;;;;;;11.63;100.00;101394.06;5049059;28;20033;-49
2023/09/14 05:52:23;;;;;;;1.75;0.50;;;;;;;11.38;100.00;101396.03;5055532;28;20453;-51
2023/09/14 05:54:48;;;;;;;0.88;0.60;;;;;;;11.46;100.00;101400.47;5061144;28;20017;-54
2023/09/14 05:57:14;;;;;;;2.65;1.50;;;;;;;11.28;100.00;101404.22;5063630;28;20094;-52
2023/09/14 05:59:40;;;;;;;0.70;0.57;;;;;;;11.25;100.00;101401.06;5057571;28;20033;-50
2023/09/14 06:02:06;;;;;;;7.97;1.08;;;;;;;11.33;100.00;101399.22;5055662;28;20036;-48
2023/09/14 06:04:31;;;;;;;0.80;0.32;;;;;;;11.26;100.00;101402.75;5064615;28;20035;-51
2023/09/14 06:06:57;;;;;;;1.65;0.85;;;;;;;11.35;100.00;101407.00;5070690;28;20052;-49
2023/09/14 06:09:22;;;;;;;1.90;0.70;;;;;;;11.42;100.00;101400.00;5053821;28;20029;-52
2023/09/14 06:11:47;;;;;;;1.08;0.35;;;;;;;11.45;100.00;101404.13;5052403;28;20802;-53
2023/09/14 06:14:13;;;;;;;1.17;1.02;;;;;;;11.45;100.00;101401.47;5055600;28;20040;-51
2023/09/14 06:16:38;;;;;;;18.95;1.10;;;;;;;11.63;100.00;101398.56;5063228;28;20037;-50
2023/09/14 06:19:04;;;;;;;1.45;0.60;;;;;;;11.69;100.00;101392.53;5055849;28;20284;-51
2023/09/14 06:21:29;;;;;;;1.55;0.57;;;;;;;11.70;100.00;101399.50;5052892;28;20051;-50
2023/09/14 06:23:55;;;;;;;0.32;0.32;;;;;;;11.65;100.00;101397.38;5059569;28;20033;-51
2023/09/14 06:26:20;;;;;;;0.75;0.45;;;;;;;11.73;100.00;101399.16;5058845;28;20047;-51
2023/09/14 06:28:45;;;;;;;1.30;0.30;;;;;;;11.73;100.00;101407.13;5052860;28;20101;-52
2023/09/14 06:31:11;;;;;;;2.45;0.47;;;;;;;11.70;100.00;101399.50;5056466;28;20549;-51
2023/09/14 06:33:36;;;;;;;0.63;0.52;;;;;;;11.78;100.00;101396.81;5049969;28;20079;-53
2023/09/14 06:36:01;;;;;;;4.13;1.02;;;;;;;11.61;100.00;101413.84;5054045;28;20039;-48
2023/09/14 06:38:27;;;;;;;0.73;0.50;;;;;;;11.57;100.00;101408.06;5050921;28;20067;-49
2023/09/14 06:40:53;;;;;;;0.25;0.22;;;;;;;11.63;100.00;101411.84;5057870;28;20068;-51
2023/09/14 06:43:18;;;;;;;1.40;0.45;;;;;;;11.69;100.00;101416.44;5055430;28;20048;-52
2023/09/14 06:45:44;;;;;;;3.45;0.80;;;;;;;11.81;100.00;101416.88;5055740;28;20690;-54
2023/09/14 06:48:09;;;;;;;1.58;0.90;;;;;;;11.93;100.00;101421.63;5049866;28;20077;-50
2023/09/14 06:50:34;;;;;;;1.17;0.57;;;;;;;12.07;100.00;101416.56;5056512;28;20028;-52
2023/09/14 06:53:00;;;;;;;5.00;0.80;;;;;;;12.04;100.00;101417.75;5062032;28;20511;-49
2023/09/14 06:55:25;;;;;;;3.72;2.00;;;;;;;11.96;100.00;101426.59;5054485;28;20519;-51
2023/09/14 06:57:50;;;;;;;4.80;0.90;;;;;;;12.21;100.00;101421.94;5061984;28;20130;-53
2023/09/14 07:00:20;;;;;;;2.50;0.90;;;;;;;12.37;100.00;101420.13;5060477;28;20036;-54
2023/09/14 07:02:50;;;;;;;1.35;1.17;;;;;;;12.39;100.00;101418.94;5055452;28;20533;-51
2023/09/14 07:05:16;;;;;;;3.65;1.05;;;;;;;12.54;100.00;101431.44;5050747;28;20052;-51
2023/09/14 07:07:41;;;;;;;1.80;1.35;;;;;;;12.68;100.00;101420.00;5047998;28;20033;-56
2023/09/14 07:10:07;;;;;;;1.52;1.23;;;;;;;12.82;100.00;101432.50;5053868;28;20085;-53
2023/09/14 07:12:35;;;;;;;0.93;0.77;;;;;;;12.88;100.00;101426.44;5054312;28;20141;-54
2023/09/14 07:15:00;;;;;;;2.83;1.13;;;;;;;12.94;100.00;101426.72;5055190;28;20024;-50
2023/09/14 07:17:26;;;;;;;5.55;1.33;;;;;;;12.95;100.00;101425.72;5050585;28;20039;-52
2023/09/14 07:19:51;;;;;;;2.10;1.05;;;;;;;13.11;100.00;101428.16;5056029;28;20126;-50
2023/09/14 07:22:19;;;;;;;4.13;1.23;;;;;;;13.16;100.00;101438.28;5057126;28;20028;-51
2023/09/14 07:24:44;;;;;;;2.13;1.85;;;;;;;13.23;100.00;101432.03;5056867;28;20098;-53
2023/09/14 07:27:10;;;;;;;2.25;1.15;;;;;;;13.43;100.00;101434.97;5057098;28;20420;-48
2023/09/14 07:29:35;;;;;;;2.00;1.35;;;;;;;13.57;100.00;101427.13;5058329;28;20060;-53
2023/09/14 07:32:01;;;;;;;1.55;1.25;;;;;;;13.66;100.00;101431.34;5051815;28;20049;-54
2023/09/14 07:34:27;;;;;;;4.70;1.33;;;;;;;13.87;100.00;101443.88;5054998;28;20474;-50
2023/09/14 07:36:52;;;;;;;2.10;1.88;;;;;;;14.11;100.00;101432.00;5049113;28;20037;-49
2023/09/14 07:39:18;;;;;;;5.05;1.83;;;;;;;14.29;100.00;101429.69;5052728;28;20068;-51
2023/09/14 07:41:43;;;;;;;1.73;1.40;;;;;;;14.47;100.00;101431.06;5044142;28;20070;-54
2023/09/14 07:44:08;;;;;;;1.48;1.38;;;;;;;14.70;100.00;101446.88;5052421;28;20480;-49
2023/09/14 07:46:33;;;;;;;2.75;2.33;;;;;;;14.85;100.00;101434.25;5046383;28;20048;-51
2023/09/14 07:49:00;;;;;;;3.35;1.90;;;;;;;14.98;100.00;101439.69;5035496;28;20040;-53
2023/09/14 07:51:25;;;;;;;1.80;1.70;;;;;;;15.17;100.00;101448.81;5053852;28;20484;-51
2023/09/14 07:53:53;;;;;;;2.85;2.35;;;;;;;15.54;100.00;101445.88;5054777;28;20035;-51
2023/09/14 07:56:18;;;;;;;4.78;2.35;;;;;;;15.87;100.00;101438.81;5052775;28;20032;-54
2023/09/14 07:58:44;;;;;;;5.78;3.08;;;;;;;16.31;100.00;101428.56;5056532;28;20561;-51
2023/09/14 08:01:09;;;;;;;3.83;2.17;;;;;;;16.72;100.00;101422.97;5052251;28;20053;-53
2023/09/14 08:03:34;;;;;;;4.10;2.47;;;;;;;17.01;100.00;101423.56;5050678;28;20211;-50
2023/09/14 08:06:00;;;;;;;3.60;2.08;;;;;;;17.26;100.00;101421.00;5055569;28;20082;-52
2023/09/14 08:08:25;;;;;;;2.33;1.77;;;;;;;17.58;100.00;101408.50;5052766;28;20028;-53
2023/09/14 08:10:52;;;;;;;1.75;1.55;;;;;;;17.83;100.00;101430.00;5053856;28;20024;-51
2023/09/14 08:13:18;;;;;;;2.85;1.42;;;;;;;17.84;100.00;101430.88;5051612;28;20037;-53
2023/09/14 08:15:44;;;;;;;1.98;1.42;;;;;;;17.75;100.00;101443.66;5052594;28;20029;-52
2023/09/14 08:18:09;;;;;;;1.83;1.08;;;;;;;17.83;100.00;101446.13;5045552;28;20040;-54
2023/09/14 08:20:39;;;;;;;3.03;1.35;;;;;;;17.50;100.00;101429.34;5054670;28;20490;-53
2023/09/14 08:23:04;;;;;;;1.27;0.90;;;;;;;17.16;100.00;101442.06;5046085;28;20037;-51
2023/09/14 08:25:29;;;;;;;2.78;1.17;;;;;;;17.92;100.00;101443.19;5048080;28;20028;-48
2023/09/14 08:27:56;;;;;;;4.05;1.33;;;;;;;18.31;100.00;101434.84;5050906;28;20371;-51
2023/09/14 08:30:22;;;;;;;6.38;1.25;;;;;;;18.57;100.00;101426.78;5049503;28;20032;-54
2023/09/14 08:32:48;;;;;;;3.53;1.27;;;;;;;18.65;100.00;101427.31;5047743;28;20076;-53
2023/09/14 08:35:22;;;;;;;3.72;1.23;;;;;;;18.82;100.00;101422.22;5048418;28;20032;-50
2023/09/14 08:37:48;;;;;;;2.05;1.40;;;;;;;18.96;100.00;101421.03;5060436;28;20028;-51
2023/09/14 08:40:14;;;;;;;2.53;0.93;;;;;;;18.91;100.00;101412.00;5056174;28;20720;-53
2023/09/14 08:42:41;;;;;;;1.95;0.68;;;;;;;19.07;100.00;101415.94;5053745;28;20360;-51
2023/09/14 08:45:10;;;;;;;5.07;0.77;;;;;;;18.81;100.00;101417.88;5051475;28;20025;-53
2023/09/14 08:47:37;;;;;;;5.78;1.70;;;;;;;18.41;100.00;101412.88;5055788;28;20024;-49
2023/09/14 08:50:03;;;;;;;1.55;0.60;;;;;;;18.72;100.00;101424.56;5054837;28;20078;-52
2023/09/14 08:52:29;;;;;;;0.90;0.68;;;;;;;19.02;100.00;101413.09;5059156;28;20112;-55
2023/09/14 08:54:56;;;;;;;3.15;0.68;;;;;;;18.79;100.00;101413.78;5061244;28;20024;-52
2023/09/14 08:57:23;;;;;;;1.08;0.40;;;;;;;19.18;100.00;101407.16;5052819;28;20045;-51
2023/09/14 08:59:50;;;;;;;0.68;0.35;;;;;;;19.33;100.00;101404.84;5057158;28;20071;-54
2023/09/14 09:02:19;;;;;;;1.02;0.47;;;;;;;19.17;100.00;101397.41;5062724;28;20029;-51
2023/09/14 09:04:44;;;;;;;1.70;0.80;;;;;;;19.50;100.00;101398.88;5064761;28;20040;-53
2023/09/14 09:07:10;;;;;;;0.90;0.30;;;;;;;20.03;100.00;101396.25;5058535;28;20097;-54
2023/09/14 09:09:36;;;;;;;0.80;0.25;;;;;;;20.43;100.00;101390.19;5052338;28;20392;-48
2023/09/14 09:12:01;;;;;;;0.75;0.20;;;;;;;20.48;100.00;101389.47;5062069;28;20033;-53
2023/09/14 09:14:30;;;;;;;1.40;0.55;;;;;;;20.48;100.00;101386.78;5053398;28;20139;-54
2023/09/14 09:16:57;;;;;;;5.22;1.15;;;;;;;20.61;100.00;101388.44;5052137;28;20302;-54
2023/09/14 09:19:22;;;;;;;0.57;0.40;;;;;;;20.83;100.00;101380.56;5056725;28;20035;-51
2023/09/14 09:21:47;;;;;;;0.60;0.28;;;;;;;21.05;100.00;101381.56;5049573;28;20040;-53
2023/09/14 09:24:14;;;;;;;1.27;0.77;;;;;;;21.15;100.00;101380.13;5056095;28;20040;-55
2023/09/14 09:26:41;;;;;;;1.10;0.10;;;;;;;21.27;100.00;101386.28;5060323;28;20036;-55
2023/09/14 09:29:18;;;;;;;0.50;0.10;;;;;;;21.45;100.00;101371.81;5058458;28;20115;-52
2023/09/14 09:31:45;;;;;;;0.45;0.10;;;;;;;21.54;100.00;101373.91;5057854;28;20091;-52
2023/09/14 09:34:14;;;;;;;6.72;0.73;;;;;;;21.55;100.00;101361.22;5060732;28;20044;-51
2023/09/14 09:36:40;;;;;;;1.33;0.30;;;;;;;21.66;100.00;101368.44;5058073;28;20103;-52
2023/09/14 09:39:07;;;;;;;3.70;0.88;;;;;;;21.68;100.00;101357.41;5059115;28;20142;-52
2023/09/14 09:41:36;;;;;;;2.30;0.35;;;;;;;21.71;100.00;101362.28;5058666;28;20032;-51
2023/09/14 09:44:13;;;;;;;0.43;0.17;;;;;;;21.90;100.00;101371.00;5059515;28;20396;-51
2023/09/14 09:46:39;;;;;;;0.40;0.20;;;;;;;22.10;100.00;101357.84;5055291;28;20032;-54
2023/09/14 09:49:19;;;;;;;2.03;0.30;;;;;;;22.14;100.00;101358.16;5061046;28;20035;-55
2023/09/14 09:51:46;;;;;;;1.58;0.10;;;;;;;22.35;100.00;101357.41;5056737;28;20029;-53
2023/09/14 09:54:11;;;;;;;1.13;0.30;;;;;;;22.51;100.00;101353.06;5058760;28;20093;-55
2023/09/14 09:56:38;;;;;;;0.40;0.00;;;;;;;22.40;100.00;101353.97;5057947;28;20036;-50
2023/09/14 09:59:09;;;;;;;1.58;0.30;;;;;;;22.43;100.00;101346.19;5062720;28;20061;-53
2023/09/14 10:01:39;;;;;;;0.52;0.17;;;;;;;22.03;100.00;101353.66;5058296;28;20485;-53
2023/09/14 10:04:08;;;;;;;1.52;0.30;;;;;;;22.43;100.00;101343.50;5057969;28;20032;-55
2023/09/14 10:06:34;;;;;;;1.48;0.17;;;;;;;21.73;100.00;101338.59;5059948;28;20040;-52
2023/09/14 10:09:06;;;;;;;1.55;0.20;;;;;;;21.21;100.00;101347.63;5057215;28;20425;-54
2023/09/14 10:11:31;;;;;;;;;;;;;;;22.42;100.00;101339.13;5060811;28;20036;-55
2023/09/14 10:13:58;;;;;;;0.20;0.10;;;;;;;22.59;100.00;101343.69;5054928;28;19970;-54
2023/09/14 10:16:24;;;;;;;3.80;0.20;;;;;;;22.67;100.00;101335.16;5053496;28;20281;-56
2023/09/14 10:18:54;;;;;;;0.90;0.30;;;;;;;22.53;100.00;101345.50;5054886;28;20032;-54
2023/09/14 10:21:20;;;;;;;1.48;0.35;;;;;;;22.59;100.00;101338.28;5057646;28;20032;-54
2023/09/14 10:23:47;;;;;;;3.13;0.35;;;;;;;22.63;100.00;101345.63;5057444;28;20028;-51
2023/09/14 10:26:13;;;;;;;0.32;0.10;;;;;;;22.79;100.00;101335.81;5054790;28;20173;-52
2023/09/14 10:28:39;;;;;;;1.23;0.80;;;;;;;22.97;100.00;101331.19;5060006;28;20665;-51
2023/09/14 10:31:06;;;;;;;1.13;0.47;;;;;;;23.05;100.00;101338.84;5061534;28;20460;-54
2023/09/14 10:33:32;;;;;;;0.85;0.30;;;;;;;23.14;100.00;101328.41;5051827;28;20551;-54
2023/09/14 10:36:00;;;;;;;1.70;0.47;;;;;;;23.03;100.00;101320.19;5057034;28;20480;-53
2023/09/14 10:38:27;;;;;;;0.90;0.40;;;;;;;23.14;100.00;101323.81;5059033;28;20464;-50
2023/09/14 10:40:53;;;;;;;2.20;0.65;;;;;;;23.33;100.00;101316.16;5060890;28;20111;-51
2023/09/14 10:43:19;;;;;;;2.00;0.35;;;;;;;23.24;100.00;101313.09;5057251;28;20085;-54
2023/09/14 10:45:48;;;;;;;0.70;0.20;;;;;;;23.49;100.00;101309.84;5056497;28;20422;-53
2023/09/14 10:48:19;;;;;;;3.33;1.08;;;;;;;23.63;100.00;101310.22;5060392;28;20171;-53
2023/09/14 10:50:45;;;;;;;1.88;0.25;;;;;;;23.60;100.00;101318.84;5052967;28;20040;-50
2023/09/14 10:53:14;;;;;;;0.20;0.05;;;;;;;23.46;100.00;101309.50;5063802;28;20397;-50
2023/09/14 10:55:41;;;;;;;3.70;0.98;;;;;;;23.90;100.00;101307.47;5059612;28;20036;-47
2023/09/14 10:58:11;;;;;;;1.45;0.30;;;;;;;23.63;100.00;101299.38;5054089;28;20050;-53
2023/09/14 11:00:38;;;;;;;0.65;0.57;;;;;;;23.64;100.00;101294.78;5051889;28;20043;-53
2023/09/14 11:03:05;;;;;;;0.20;0.10;;;;;;;23.86;100.00;101290.13;5056405;28;20035;-52
2023/09/14 11:05:41;;;;;;;1.42;0.70;;;;;;;24.12;100.00;101291.09;5056310;28;20106;-53
2023/09/14 11:08:07;;;;;;;0.25;0.20;;;;;;;24.29;100.00;101285.50;5056650;28;20021;-55
2023/09/14 11:10:37;;;;;;;0.77;0.47;;;;;;;24.35;100.00;101279.03;5059475;28;20410;-50
2023/09/14 11:13:20;;;;;;;1.90;0.40;;;;;;;24.54;100.00;101282.09;5064785;28;20052;-53